Time;durP1;ratioP1;P1;durP2;ratioP2;P2;SDS_P1;SDS_P2;PMS_P1;PMS_P2;Temp;Humidity;BMP_temperature;BMP_pressure;BME280_temperature;BME280_humidity;BME280_pressure;Samples;Min_cycle;Max_cycle;Signal;HPM_P1;HPM_P2
2022/06/30 00:01:56;;;;;;;8.60;5.50;;;21.00;99.60;;;;;;9182761;19;20034;-66
2022/06/30 00:05:02;;;;;;;8.52;5.97;;;21.10;99.90;;;;;;9179091;19;20011;-67
2022/06/30 00:08:07;;;;;;;10.00;6.15;;;21.10;99.90;;;;;;9182243;19;20483;-67
2022/06/30 00:11:11;;;;;;;7.78;5.82;;;21.10;99.90;;;;;;9181617;19;20011;-66
2022/06/30 00:14:15;;;;;;;6.22;5.63;;;21.20;99.90;;;;;;9182691;19;20025;-66
2022/06/30 00:17:19;;;;;;;9.15;5.93;;;21.10;99.90;;;;;;9182540;19;20038;-66
2022/06/30 00:20:26;;;;;;;7.43;5.63;;;21.10;99.90;;;;;;9182994;19;20070;-66
2022/06/30 00:23:30;;;;;;;6.32;5.25;;;21.00;99.90;;;;;;9181250;19;20045;-67
2022/06/30 00:26:34;;;;;;;5.93;4.97;;;21.10;99.80;;;;;;9179239;19;20027;-66
2022/06/30 00:29:38;;;;;;;7.10;5.20;;;21.00;99.80;;;;;;9181283;19;20006;-66
2022/06/30 00:32:42;;;;;;;6.07;5.47;;;21.10;99.90;;;;;;9178725;19;20021;-67
2022/06/30 00:35:49;;;;;;;8.77;5.80;;;21.00;99.90;;;;;;9182688;19;20010;-67
2022/06/30 00:38:53;;;;;;;6.25;5.38;;;21.10;99.90;;;;;;9181834;19;20014;-67
2022/06/30 00:41:57;;;;;;;9.70;6.18;;;21.00;99.80;;;;;;9179097;19;20472;-67
2022/06/30 00:45:01;;;;;;;6.53;4.80;;;21.00;99.90;;;;;;9177114;19;20044;-67
2022/06/30 00:48:06;;;;;;;7.50;5.60;;;21.00;99.90;;;;;;9178550;19;20018;-67
2022/06/30 00:51:12;;;;;;;7.82;5.57;;;20.90;99.50;;;;;;9180775;19;20062;-66
2022/06/30 00:54:18;;;;;;;6.03;5.15;;;20.70;99.70;;;;;;9180832;19;20491;-67
2022/06/30 00:57:24;;;;;;;6.15;4.80;;;20.90;99.80;;;;;;9180375;19;20010;-66
2022/06/30 01:00:31;;;;;;;5.38;4.78;;;20.90;99.90;;;;;;9181972;19;20014;-67
2022/06/30 01:03:36;;;;;;;7.35;5.22;;;20.70;99.90;;;;;;9179175;19;20023;-66
2022/06/30 01:06:45;;;;;;;5.97;4.90;;;20.90;99.90;;;;;;9180871;19;20502;-66
2022/06/30 01:13:12;;;;;;;8.93;5.10;;;20.60;99.90;;;;;;9176714;19;20011;-67
2022/06/30 01:16:19;;;;;;;7.25;5.03;;;20.60;99.90;;;;;;9177727;19;20046;-66
2022/06/30 01:19:23;;;;;;;6.60;5.28;;;20.50;99.90;;;;;;9181240;19;20482;-66
2022/06/30 01:22:30;;;;;;;7.07;5.25;;;20.40;99.90;;;;;;9179527;19;20014;-66
2022/06/30 01:25:36;;;;;;;7.70;5.57;;;20.70;99.90;;;;;;9178706;19;20029;-67
2022/06/30 01:28:40;;;;;;;7.60;5.90;;;20.40;99.90;;;;;;9179849;19;20081;-66
2022/06/30 01:31:43;;;;;;;8.52;5.97;;;20.50;99.90;;;;;;9173115;19;20090;-67
2022/06/30 01:34:47;;;;;;;6.28;5.47;;;20.50;99.90;;;;;;9180021;19;20019;-66
2022/06/30 01:37:56;;;;;;;8.20;6.28;;;20.40;99.90;;;;;;9179394;19;20015;-67
2022/06/30 01:41:00;;;;;;;8.77;5.93;;;20.20;99.90;;;;;;9179899;19;20082;-66
2022/06/30 01:44:04;;;;;;;7.47;5.95;;;20.30;99.90;;;;;;9177856;19;20018;-66
2022/06/30 01:47:10;;;;;;;8.32;5.88;;;20.00;99.90;;;;;;9186016;19;20018;-66
2022/06/30 01:50:18;;;;;;;7.55;6.00;;;20.10;99.90;;;;;;9188276;19;20015;-66
2022/06/30 01:53:24;;;;;;;7.50;5.78;;;20.20;99.90;;;;;;9185660;19;20477;-66
2022/06/30 01:56:28;;;;;;;9.55;6.28;;;20.10;99.90;;;;;;9186428;19;20037;-67
2022/06/30 01:59:32;;;;;;;7.53;5.65;;;20.00;99.90;;;;;;9187685;19;20017;-66
2022/06/30 02:02:36;;;;;;;7.15;5.93;;;19.80;99.90;;;;;;9187717;19;20024;-66
2022/06/30 02:05:40;;;;;;;8.13;5.65;;;20.00;99.90;;;;;;9185522;19;20074;-66
2022/06/30 02:08:46;;;;;;;7.40;5.80;;;19.80;99.90;;;;;;9187409;19;20078;-66
2022/06/30 02:12:44;;;;;;;6.03;5.38;;;19.80;99.90;;;;;;9186922;19;20031;-67
2022/06/30 02:15:16;;;;;;;6.53;5.38;;;19.70;99.90;;;;;;9185292;19;20034;-68
2022/06/30 02:18:20;;;;;;;6.78;5.47;;;19.80;99.90;;;;;;9185979;19;20082;-66
2022/06/30 02:21:23;;;;;;;5.95;5.35;;;19.80;99.90;;;;;;9186397;19;20043;-66
2022/06/30 02:24:31;;;;;;;7.20;5.38;;;19.70;99.90;;;;;;9182910;19;20356;-66
2022/06/30 02:27:35;;;;;;;8.55;5.38;;;19.60;99.90;;;;;;9186499;19;20025;-66
2022/06/30 02:30:39;;;;;;;7.68;5.25;;;19.60;99.90;;;;;;9186620;19;20021;-67
2022/06/30 02:33:43;;;;;;;6.88;5.43;;;19.50;99.90;;;;;;9184956;19;20022;-66
2022/06/30 02:36:47;;;;;;;7.47;5.43;;;19.40;99.90;;;;;;9183946;19;20038;-66
2022/06/30 02:39:53;;;;;;;8.60;5.30;;;19.50;99.90;;;;;;9188191;19;20017;-66
2022/06/30 02:42:57;;;;;;;5.97;5.38;;;19.10;99.90;;;;;;9183093;19;20024;-66
2022/06/30 02:46:01;;;;;;;8.77;6.18;;;19.40;99.90;;;;;;9182701;19;20090;-67
2022/06/30 02:49:05;;;;;;;7.60;5.95;;;19.30;99.90;;;;;;9184788;19;20015;-67
2022/06/30 02:52:10;;;;;;;8.30;5.47;;;19.20;99.90;;;;;;9184817;19;20018;-66
2022/06/30 02:55:16;;;;;;;7.47;5.70;;;19.20;99.90;;;;;;9184926;19;20479;-66
2022/06/30 02:58:20;;;;;;;8.20;6.35;;;19.20;99.90;;;;;;9185114;19;20070;-66
2022/06/30 03:01:24;;;;;;;7.78;5.90;;;19.20;99.90;;;;;;9184396;19;20484;-66
2022/06/30 03:04:28;;;;;;;8.13;6.00;;;19.20;99.90;;;;;;9183985;19;20026;-66
2022/06/30 03:07:32;;;;;;;8.93;5.78;;;19.00;99.90;;;;;;9185286;19;20102;-66
2022/06/30 03:10:38;;;;;;;7.53;5.70;;;19.10;99.90;;;;;;9183657;19;20015;-66
2022/06/30 03:13:42;;;;;;;6.38;5.47;;;19.10;99.90;;;;;;9183468;19;20546;-66
2022/06/30 03:16:46;;;;;;;6.65;5.75;;;19.00;99.90;;;;;;9184948;19;20025;-66
2022/06/30 03:19:49;;;;;;;7.40;5.82;;;18.90;99.90;;;;;;9184700;19;20023;-66
2022/06/30 03:22:53;;;;;;;6.18;5.30;;;18.90;99.90;;;;;;9183547;19;20014;-66
2022/06/30 03:26:01;;;;;;;5.93;5.28;;;18.80;99.90;;;;;;9181524;19;20018;-66
2022/06/30 03:29:04;;;;;;;8.20;5.80;;;18.80;99.90;;;;;;9183329;19;20014;-66
2022/06/30 03:32:09;;;;;;;7.18;5.50;;;18.70;99.90;;;;;;9182395;19;20010;-66
2022/06/30 03:35:13;;;;;;;7.72;5.13;;;18.80;99.90;;;;;;9183978;19;20022;-66
2022/06/30 03:38:17;;;;;;;6.07;5.43;;;18.90;99.90;;;;;;9183494;19;20487;-66
2022/06/30 03:41:23;;;;;;;6.32;5.25;;;18.60;99.90;;;;;;9183020;19;20074;-66
2022/06/30 03:44:27;;;;;;;7.50;5.25;;;18.70;99.90;;;;;;9183161;19;20022;-67
2022/06/30 03:47:31;;;;;;;8.20;5.00;;;18.60;99.90;;;;;;9182299;19;20364;-66
2022/06/30 03:50:36;;;;;;;6.25;5.20;;;18.70;99.90;;;;;;9180623;19;20014;-67
2022/06/30 03:53:40;;;;;;;6.93;5.28;;;18.70;99.90;;;;;;9181837;19;20403;-66
2022/06/30 03:56:47;;;;;;;7.03;5.10;;;18.60;99.90;;;;;;9184618;19;20475;-66
2022/06/30 03:59:51;;;;;;;6.57;5.03;;;18.40;99.90;;;;;;9180242;19;20014;-67
2022/06/30 04:02:55;;;;;;;7.85;5.00;;;18.60;99.90;;;;;;9183135;19;20045;-66
2022/06/30 04:05:59;;;;;;;6.75;4.80;;;18.50;99.90;;;;;;9181324;19;20015;-66
2022/06/30 04:09:03;;;;;;;5.38;4.82;;;18.60;99.90;;;;;;9179045;19;20021;-66
2022/06/30 04:12:10;;;;;;;5.78;5.15;;;18.60;99.90;;;;;;9180206;19;20026;-66
2022/06/30 04:15:14;;;;;;;6.85;5.03;;;18.40;99.90;;;;;;9182316;19;20019;-66
2022/06/30 04:18:17;;;;;;;6.55;4.95;;;18.60;99.90;;;;;;9178116;19;20383;-66
2022/06/30 04:21:21;;;;;;;7.32;4.50;;;18.70;99.90;;;;;;9183662;19;20018;-66
2022/06/30 04:24:25;;;;;;;8.10;4.70;;;18.60;99.90;;;;;;9180471;19;20024;-67
2022/06/30 04:27:33;;;;;;;7.75;5.10;;;18.60;99.90;;;;;;9175309;19;20010;-66
2022/06/30 04:33:53;;;;;;;7.82;4.88;;;18.70;99.90;;;;;;9182781;19;20021;-66
2022/06/30 04:36:57;;;;;;;6.07;4.57;;;18.70;99.90;;;;;;9182580;19;20064;-67
2022/06/30 04:43:21;;;;;;;7.43;4.37;;;18.40;99.90;;;;;;9179556;19;20478;-67
2022/06/30 04:46:26;;;;;;;6.47;4.35;;;18.60;99.90;;;;;;9178892;19;20433;-66
2022/06/30 04:49:30;;;;;;;8.40;4.47;;;18.60;99.90;;;;;;9179672;19;20480;-66
2022/06/30 04:52:34;;;;;;;6.00;4.20;;;18.40;99.90;;;;;;9180679;19;20022;-67
2022/06/30 04:55:39;;;;;;;4.93;4.22;;;18.60;99.90;;;;;;9179134;19;20011;-66
2022/06/30 04:58:45;;;;;;;6.75;4.32;;;18.60;99.90;;;;;;9178352;19;20023;-66
2022/06/30 05:01:49;;;;;;;;;;;18.50;99.90;;;;;;9181564;19;20046;-67
2022/06/30 05:04:53;;;;;;;4.80;4.30;;;18.30;99.90;;;;;;9181837;19;19924;-66
2022/06/30 05:07:57;;;;;;;5.20;4.50;;;18.40;99.90;;;;;;9179428;19;20097;-66
2022/06/30 05:11:01;;;;;;;6.80;4.75;;;18.50;99.90;;;;;;9180852;19;20019;-66
2022/06/30 05:14:08;;;;;;;6.85;5.05;;;18.50;99.90;;;;;;9181120;19;20010;-66
2022/06/30 05:17:11;;;;;;;6.93;4.93;;;18.50;99.90;;;;;;9177331;19;20017;-66
2022/06/30 05:20:15;;;;;;;6.50;4.70;;;18.60;99.90;;;;;;9183180;19;20010;-68
2022/06/30 05:23:19;;;;;;;5.72;4.55;;;18.70;99.90;;;;;;9189249;19;20014;-66
2022/06/30 05:26:29;;;;;;;8.07;4.40;;;18.50;99.90;;;;;;9186969;19;20419;-67
2022/06/30 05:29:37;;;;;;;5.72;4.75;;;18.70;99.90;;;;;;9188264;19;20673;-66
2022/06/30 05:32:40;;;;;;;7.00;4.75;;;18.60;99.90;;;;;;9189157;19;20011;-66
2022/06/30 05:35:45;;;;;;;6.15;4.15;;;18.70;99.90;;;;;;9188877;19;20018;-66
2022/06/30 05:38:48;;;;;;;6.57;4.53;;;18.50;99.90;;;;;;9188359;19;20027;-67
2022/06/30 05:41:52;;;;;;;6.88;4.53;;;18.80;99.90;;;;;;9182522;19;20014;-67
2022/06/30 05:44:59;;;;;;;7.28;4.35;;;18.80;99.90;;;;;;9182625;19;20187;-66
2022/06/30 05:48:03;;;;;;;6.40;4.78;;;18.70;99.90;;;;;;9187464;19;20015;-67
2022/06/30 05:51:07;;;;;;;5.50;4.30;;;18.80;99.90;;;;;;9185916;19;20014;-66
2022/06/30 05:54:11;;;;;;;6.25;4.32;;;18.70;99.90;;;;;;9184637;19;20021;-66
2022/06/30 05:57:15;;;;;;;5.22;4.13;;;18.80;99.90;;;;;;9184359;19;20066;-66
2022/06/30 06:00:22;;;;;;;10.50;4.57;;;19.00;99.90;;;;;;9186891;19;20424;-67
2022/06/30 06:03:26;;;;;;;5.68;4.00;;;18.90;99.90;;;;;;9186985;19;20508;-67
2022/06/30 06:06:30;;;;;;;5.82;3.90;;;19.00;99.90;;;;;;9183048;19;20048;-67
2022/06/30 06:09:33;;;;;;;6.03;4.30;;;19.20;99.90;;;;;;9187044;19;20486;-68
2022/06/30 06:12:38;;;;;;;8.75;4.65;;;19.30;99.90;;;;;;9184081;19;20022;-67
2022/06/30 06:15:44;;;;;;;5.75;4.32;;;19.20;99.90;;;;;;9185768;19;20015;-67
2022/06/30 06:18:48;;;;;;;6.35;4.18;;;19.20;99.90;;;;;;9186481;19;20030;-67
2022/06/30 06:21:52;;;;;;;5.03;4.30;;;19.10;99.90;;;;;;9186437;19;20487;-67
2022/06/30 06:24:56;;;;;;;6.82;4.40;;;19.30;99.90;;;;;;9182937;19;20017;-68
2022/06/30 06:31:19;;;;;;;5.30;4.30;;;19.30;99.90;;;;;;9183951;19;20127;-68
2022/06/30 06:34:23;;;;;;;7.63;4.90;;;19.50;99.90;;;;;;9183233;19;20030;-68
2022/06/30 06:37:28;;;;;;;6.85;4.85;;;19.50;99.90;;;;;;9180816;19;20078;-68
2022/06/30 06:40:32;;;;;;;6.22;4.60;;;19.50;99.90;;;;;;9182161;19;20048;-67
2022/06/30 06:43:36;;;;;;;7.50;4.90;;;19.60;99.90;;;;;;9181093;19;20015;-68
2022/06/30 06:46:43;;;;;;;7.15;4.47;;;19.50;99.90;;;;;;9184474;19;20029;-68
2022/06/30 06:49:47;;;;;;;7.95;4.72;;;19.80;99.90;;;;;;9180295;19;20014;-68
2022/06/30 06:52:50;;;;;;;7.20;5.03;;;19.80;99.90;;;;;;9182383;19;20018;-68
2022/06/30 06:55:54;;;;;;;7.28;4.53;;;20.00;99.90;;;;;;9183262;19;20025;-68
2022/06/30 06:58:59;;;;;;;6.28;4.63;;;19.90;99.90;;;;;;9182221;19;20114;-68
2022/06/30 07:02:06;;;;;;;5.38;4.30;;;19.70;99.90;;;;;;9181648;19;20015;-68
2022/06/30 07:05:12;;;;;;;9.13;5.10;;;20.10;99.90;;;;;;9185772;19;20404;-68
2022/06/30 07:08:15;;;;;;;7.70;4.95;;;19.90;99.90;;;;;;9179695;19;20021;-68
2022/06/30 07:11:19;;;;;;;5.57;4.93;;;20.00;99.90;;;;;;9185189;19;20038;-68
2022/06/30 07:14:23;;;;;;;7.15;5.18;;;20.10;99.90;;;;;;9184558;19;20010;-67
2022/06/30 07:17:30;;;;;;;5.88;5.00;;;20.00;99.90;;;;;;9184084;19;20017;-68
2022/06/30 07:20:34;;;;;;;6.10;4.70;;;20.20;99.90;;;;;;9185612;19;20022;-68
2022/06/30 07:23:38;;;;;;;7.53;5.05;;;20.20;99.90;;;;;;9182467;19;20025;-68
2022/06/30 07:26:42;;;;;;;7.72;5.32;;;20.30;99.90;;;;;;9179355;19;20014;-68
2022/06/30 07:29:46;;;;;;;6.68;5.25;;;20.40;99.90;;;;;;9179879;19;20086;-68
2022/06/30 07:32:53;;;;;;;8.80;5.90;;;20.50;99.90;;;;;;9182262;19;20022;-68
2022/06/30 07:35:57;;;;;;;7.38;5.82;;;20.60;99.90;;;;;;9183564;19;20074;-69
2022/06/30 07:39:01;;;;;;;8.00;5.68;;;20.50;99.90;;;;;;9180159;19;20015;-69
2022/06/30 07:42:06;;;;;;;8.75;5.82;;;20.60;99.90;;;;;;9183388;19;20512;-68
2022/06/30 07:45:11;;;;;;;8.60;6.22;;;20.70;99.90;;;;;;9177766;19;20052;-69
2022/06/30 07:48:18;;;;;;;8.80;5.93;;;20.80;99.90;;;;;;9172602;19;20413;-68
2022/06/30 07:51:22;;;;;;;8.85;5.75;;;20.70;99.90;;;;;;9181841;19;20074;-68
2022/06/30 07:54:26;;;;;;;8.65;6.13;;;21.00;99.90;;;;;;9179505;19;20014;-68
2022/06/30 07:57:30;;;;;;;9.63;5.63;;;21.20;99.90;;;;;;9181450;19;20030;-68
2022/06/30 08:00:34;;;;;;;11.05;6.68;;;21.30;99.90;;;;;;9179990;19;20026;-68
2022/06/30 08:03:40;;;;;;;7.70;6.47;;;21.30;99.90;;;;;;9183074;19;20019;-68
2022/06/30 08:06:44;;;;;;;9.73;6.70;;;21.40;99.90;;;;;;9181527;19;20010;-68
2022/06/30 08:09:48;;;;;;;9.30;6.55;;;21.50;99.90;;;;;;9180958;19;20021;-68
2022/06/30 08:12:52;;;;;;;9.20;7.10;;;20.30;99.90;;;;;;9180424;19;20010;-68
2022/06/30 08:15:56;;;;;;;9.18;6.72;;;21.60;99.90;;;;;;9182426;19;20053;-68
2022/06/30 08:19:03;;;;;;;9.13;6.70;;;21.60;99.90;;;;;;9179287;19;20482;-68
2022/06/30 08:22:07;;;;;;;8.82;6.55;;;21.50;99.90;;;;;;9182818;19;20353;-68
2022/06/30 08:25:11;;;;;;;9.63;6.65;;;21.60;99.90;;;;;;9177448;19;20011;-68
2022/06/30 08:28:15;;;;;;;10.55;7.07;;;21.70;99.90;;;;;;9180150;19;20027;-68
2022/06/30 08:31:19;;;;;;;9.73;7.82;;;21.80;99.90;;;;;;9175689;19;20007;-68
2022/06/30 08:34:26;;;;;;;9.73;7.78;;;21.70;99.90;;;;;;9177713;19;20069;-68
2022/06/30 08:37:30;;;;;;;9.27;7.82;;;21.80;99.90;;;;;;9179916;19;20367;-68
2022/06/30 08:43:53;;;;;;;11.57;8.68;;;22.00;99.90;;;;;;9178373;19;20031;-68
2022/06/30 08:46:58;;;;;;;10.98;8.00;;;21.90;99.90;;;;;;9177694;19;20025;-68
2022/06/30 08:50:04;;;;;;;11.73;8.45;;;21.90;99.90;;;;;;9179577;19;20015;-68
2022/06/30 08:53:10;;;;;;;10.18;8.13;;;22.00;99.90;;;;;;9182107;19;20019;-68
2022/06/30 08:56:15;;;;;;;12.10;7.75;;;22.00;99.90;;;;;;9179611;19;20043;-68
2022/06/30 08:59:20;;;;;;;11.40;8.60;;;22.00;99.90;;;;;;9177674;19;20014;-68
2022/06/30 09:02:24;;;;;;;10.30;8.13;;;22.10;99.90;;;;;;9179727;19;20086;-68
2022/06/30 09:05:31;;;;;;;9.02;7.85;;;22.20;99.90;;;;;;9178667;19;20019;-68
2022/06/30 09:08:35;;;;;;;10.98;7.80;;;22.20;99.90;;;;;;9180387;19;20018;-68
2022/06/30 09:11:53;;;;;;;9.60;7.95;;;22.30;99.90;;;;;;9176840;19;20019;-68
2022/06/30 09:14:58;;;;;;;9.15;7.22;;;22.40;99.90;;;;;;9179345;19;20086;-68
2022/06/30 09:18:02;;;;;;;10.30;7.55;;;22.40;99.90;;;;;;9172898;19;20026;-68
2022/06/30 09:21:21;;;;;;;12.43;8.60;;;22.50;99.90;;;;;;9180638;19;20090;-68
2022/06/30 09:24:25;;;;;;;11.88;8.02;;;22.80;99.90;;;;;;9178332;19;20070;-68
2022/06/30 09:27:31;;;;;;;10.20;7.18;;;22.60;99.90;;;;;;9175918;19;20022;-68
2022/06/30 09:30:35;;;;;;;9.57;7.00;;;22.60;99.90;;;;;;9179163;19;20026;-68
2022/06/30 09:33:44;;;;;;;9.13;6.97;;;22.60;99.90;;;;;;9179603;19;20014;-68
2022/06/30 09:36:54;;;;;;;9.70;6.68;;;22.60;99.90;;;;;;9179980;19;20062;-68
2022/06/30 09:39:57;;;;;;;9.85;6.93;;;22.70;99.90;;;;;;9176374;19;20374;-68
2022/06/30 09:43:02;;;;;;;10.65;7.63;;;22.80;99.90;;;;;;9176396;19;20113;-68
2022/06/30 09:46:07;;;;;;;10.05;6.72;;;22.80;99.90;;;;;;9175197;19;20017;-68
2022/06/30 09:49:11;;;;;;;9.90;7.25;;;22.90;99.90;;;;;;9172592;19;20021;-69
2022/06/30 09:52:22;;;;;;;8.20;7.28;;;23.10;99.90;;;;;;9179133;19;20078;-68
2022/06/30 09:55:26;;;;;;;7.88;6.60;;;23.30;99.90;;;;;;9175827;19;20011;-68
2022/06/30 09:58:42;;;;;;;8.75;6.70;;;23.30;99.90;;;;;;9175292;19;20021;-68
2022/06/30 10:01:53;;;;;;;11.02;7.68;;;23.30;99.90;;;;;;9175425;19;20015;-68
2022/06/30 10:04:59;;;;;;;11.40;7.63;;;23.40;99.90;;;;;;9178525;19;20017;-68
2022/06/30 10:08:06;;;;;;;8.32;6.63;;;23.50;99.90;;;;;;9178416;19;20014;-68
2022/06/30 10:11:11;;;;;;;7.85;6.55;;;23.80;99.90;;;;;;9187650;19;20026;-67
2022/06/30 10:14:17;;;;;;;11.48;7.15;;;23.70;99.90;;;;;;9180361;19;20052;-71
2022/06/30 10:17:23;;;;;;;8.50;7.20;;;23.80;99.90;;;;;;9184947;19;20017;-70
2022/06/30 10:20:31;;;;;;;8.32;6.95;;;24.00;99.90;;;;;;9181595;19;20020;-71
2022/06/30 10:23:38;;;;;;;11.48;7.60;;;24.00;99.90;;;;;;9184131;19;20022;-71
2022/06/30 10:30:00;;;;;;;10.50;7.43;;;24.10;99.90;;;;;;9181458;19;20010;-73
2022/06/30 10:33:09;;;;;;;9.27;7.28;;;24.00;99.90;;;;;;9182039;19;20026;-73
2022/06/30 10:36:20;;;;;;;8.75;7.32;;;24.30;99.90;;;;;;9184565;19;20078;-72
2022/06/30 10:39:37;;;;;;;10.20;7.13;;;24.30;99.90;;;;;;9182624;19;20011;-72
2022/06/30 10:42:47;;;;;;;8.13;6.70;;;24.30;99.90;;;;;;9183755;19;20007;-72
2022/06/30 10:46:05;;;;;;;8.73;7.00;;;24.40;99.90;;;;;;9178562;19;20011;-71
2022/06/30 10:49:11;;;;;;;10.98;7.50;;;24.50;99.40;;;;;;9175139;19;20014;-71
2022/06/30 10:52:22;;;;;;;10.60;7.43;;;24.50;98.90;;;;;;9184969;19;20360;-70
2022/06/30 10:55:29;;;;;;;8.98;7.25;;;24.50;98.70;;;;;;9182695;19;20285;-70
2022/06/30 10:58:33;;;;;;;;;;;24.50;99.40;;;;;;9184763;19;20014;-70
2022/06/30 11:01:37;;;;;;;13.32;6.90;;;24.80;99.40;;;;;;9182160;19;19936;-70
2022/06/30 11:04:42;;;;;;;8.32;6.85;;;24.80;99.80;;;;;;9181816;19;20011;-73
2022/06/30 11:07:46;;;;;;;8.73;7.00;;;24.90;99.80;;;;;;9177487;19;20090;-72
2022/06/30 11:10:53;;;;;;;9.02;6.78;;;25.10;99.90;;;;;;9179916;19;20021;-73
2022/06/30 11:14:26;;;;;;;13.60;7.55;;;25.20;99.90;;;;;;9184348;19;20483;-74
2022/06/30 11:17:32;;;;;;;8.85;6.93;;;25.40;98.60;;;;;;9179743;19;20106;-74
2022/06/30 11:20:44;;;;;;;8.50;6.85;;;25.50;99.00;;;;;;9179200;19;20573;-73
2022/06/30 11:23:50;;;;;;;8.93;7.25;;;25.50;98.80;;;;;;9180158;19;20073;-73
2022/06/30 11:30:22;;;;;;;9.93;6.95;;;25.80;98.90;;;;;;9178323;19;20415;-71
2022/06/30 11:33:26;;;;;;;8.27;6.90;;;26.00;98.60;;;;;;9173201;19;21060;-71
2022/06/30 11:36:30;;;;;;;8.60;6.97;;;26.00;98.50;;;;;;9181232;19;20025;-71
2022/06/30 11:39:36;;;;;;;8.07;6.97;;;26.10;97.70;;;;;;9185932;19;20074;-71
2022/06/30 11:42:43;;;;;;;8.77;6.57;;;26.20;97.80;;;;;;9183987;19;20068;-71
2022/06/30 11:45:46;;;;;;;;;;;26.40;98.30;;;;;;9185958;19;20070;-71
2022/06/30 11:48:51;;;;;;;9.20;7.25;;;26.40;97.00;;;;;;9181971;19;19926;-72
2022/06/30 11:51:55;;;;;;;9.25;6.75;;;26.40;97.10;;;;;;9182641;19;20047;-72
2022/06/30 11:55:00;;;;;;;8.88;7.03;;;26.60;97.30;;;;;;9180780;19;20018;-72
2022/06/30 11:58:07;;;;;;;10.25;6.97;;;26.60;97.10;;;;;;9180794;19;20017;-72
2022/06/30 12:01:18;;;;;;;7.43;6.35;;;26.70;96.50;;;;;;9174732;19;20025;-72
2022/06/30 12:04:22;;;;;;;7.20;6.00;;;27.00;96.10;;;;;;9182246;19;20025;-71
2022/06/30 12:07:28;;;;;;;7.20;5.75;;;26.90;95.30;;;;;;9182086;19;20052;-72
2022/06/30 12:10:31;;;;;;;6.53;5.72;;;27.00;96.00;;;;;;9180131;19;20014;-72
2022/06/30 12:13:38;;;;;;;8.52;6.22;;;27.40;95.70;;;;;;9179593;19;20518;-70
2022/06/30 12:16:43;;;;;;;6.13;4.93;;;27.30;93.10;;;;;;9178433;19;20018;-70
2022/06/30 12:19:49;;;;;;;4.93;4.35;;;27.30;91.70;;;;;;9178242;19;20014;-70
2022/06/30 12:22:55;;;;;;;6.55;4.93;;;27.30;90.80;;;;;;9180941;19;20070;-70
2022/06/30 12:25:59;;;;;;;6.63;5.40;;;27.40;90.40;;;;;;9177784;19;20013;-70
2022/06/30 12:29:13;;;;;;;5.15;4.65;;;27.40;89.70;;;;;;9175300;19;20018;-72
2022/06/30 12:32:17;;;;;;;8.18;5.60;;;27.50;87.50;;;;;;9177165;19;20044;-72
2022/06/30 12:35:24;;;;;;;5.68;5.10;;;27.50;90.50;;;;;;9182174;19;20084;-70
2022/06/30 12:38:28;;;;;;;6.70;5.22;;;27.70;90.00;;;;;;9177054;19;20026;-70
2022/06/30 12:41:33;;;;;;;6.00;4.47;;;27.90;86.20;;;;;;9181104;19;20945;-72
2022/06/30 12:44:40;;;;;;;6.55;5.03;;;27.90;83.00;;;;;;9175928;19;20049;-72
2022/06/30 12:47:45;;;;;;;6.68;4.78;;;27.90;85.70;;;;;;9173844;19;20015;-72
2022/06/30 12:50:49;;;;;;;5.10;4.60;;;28.30;87.80;;;;;;9181859;19;20055;-72
2022/06/30 12:54:01;;;;;;;5.95;5.35;;;28.50;89.70;;;;;;9179411;19;20083;-72
2022/06/30 12:57:07;;;;;;;5.70;5.20;;;28.30;87.60;;;;;;9180002;19;20079;-72
2022/06/30 13:00:14;;;;;;;6.20;5.10;;;28.20;86.10;;;;;;9179583;19;20010;-72
2022/06/30 13:03:18;;;;;;;5.93;5.13;;;28.40;87.00;;;;;;9177422;19;20279;-72
2022/06/30 13:06:23;;;;;;;6.63;5.80;;;28.70;87.40;;;;;;9170795;19;20018;-71
2022/06/30 13:09:32;;;;;;;6.10;5.32;;;28.40;84.20;;;;;;9178679;19;20022;-72
2022/06/30 13:12:36;;;;;;;5.95;5.20;;;28.30;84.60;;;;;;9178107;19;20014;-72
2022/06/30 13:15:43;;;;;;;8.25;5.63;;;28.00;84.10;;;;;;9181787;19;20340;-72
2022/06/30 13:18:48;;;;;;;7.03;5.30;;;27.80;83.50;;;;;;9176755;19;20356;-72
2022/06/30 13:21:52;;;;;;;7.03;6.03;;;27.80;85.20;;;;;;9181569;19;20018;-72
2022/06/30 13:24:56;;;;;;;7.05;5.70;;;28.10;86.80;;;;;;9178848;19;20569;-72
2022/06/30 13:28:00;;;;;;;11.38;6.40;;;28.10;87.70;;;;;;9175348;19;20074;-72
2022/06/30 13:31:07;;;;;;;9.68;7.20;;;27.50;89.00;;;;;;9177546;19;20025;-72
2022/06/30 13:34:12;;;;;;;9.70;7.60;;;27.40;90.10;;;;;;9176882;19;20086;-72
2022/06/30 13:37:16;;;;;;;8.27;7.47;;;27.40;91.60;;;;;;9174883;19;20013;-71
2022/06/30 13:40:20;;;;;;;10.40;8.80;;;27.00;93.20;;;;;;9179252;19;20471;-71
2022/06/30 13:43:25;;;;;;;9.25;8.25;;;26.70;93.50;;;;;;9184235;19;20070;-71
2022/06/30 13:46:32;;;;;;;8.75;7.85;;;26.50;94.90;;;;;;9186784;19;20019;-71
2022/06/30 13:49:37;;;;;;;13.35;9.32;;;26.30;95.80;;;;;;9184998;19;20016;-71
2022/06/30 13:52:41;;;;;;;11.60;9.73;;;26.40;96.00;;;;;;9183983;19;20432;-71
2022/06/30 13:55:44;;;;;;;14.10;8.90;;;26.30;96.30;;;;;;9188042;19;20014;-71
2022/06/30 13:58:48;;;;;;;11.70;10.10;;;26.40;96.90;;;;;;9186824;19;20018;-72
2022/06/30 14:01:55;;;;;;;11.38;9.82;;;25.90;97.30;;;;;;9185851;19;20015;-71
2022/06/30 14:05:00;;;;;;;12.35;10.38;;;26.00;98.10;;;;;;9183397;19;20475;-71
2022/06/30 14:08:04;;;;;;;16.83;10.70;;;25.60;98.30;;;;;;9182728;19;20014;-72
2022/06/30 14:11:08;;;;;;;13.35;10.27;;;25.50;99.10;;;;;;9183684;19;20044;-71
2022/06/30 14:14:12;;;;;;;19.73;12.05;;;25.60;99.90;;;;;;9184034;19;20033;-70
2022/06/30 14:17:18;;;;;;;18.38;11.43;;;25.40;99.90;;;;;;9183530;19;20493;-72
2022/06/30 14:20:23;;;;;;;14.50;11.32;;;25.20;99.90;;;;;;9178106;19;20019;-73
2022/06/30 14:23:27;;;;;;;14.27;11.50;;;25.30;99.90;;;;;;9181249;19;20023;-71
2022/06/30 14:26:31;;;;;;;16.52;12.70;;;25.40;99.90;;;;;;9186048;19;20015;-67
2022/06/30 14:29:35;;;;;;;21.02;14.27;;;25.40;99.90;;;;;;9183918;19;20011;-72
2022/06/30 14:32:42;;;;;;;17.60;13.05;;;25.40;99.90;;;;;;9185132;19;20014;-71
2022/06/30 14:35:46;;;;;;;18.50;14.43;;;25.40;99.90;;;;;;9185468;19;20028;-75
2022/06/30 14:38:50;;;;;;;23.33;14.40;;;25.40;99.90;;;;;;9181164;19;20494;-73
2022/06/30 14:45:11;;;;;;;;;;;25.20;99.90;;;;;;9184556;19;20542;-71
2022/06/30 14:48:17;;;;;;;14.95;10.77;;;25.00;99.90;;;;;;9182770;19;20013;-73
2022/06/30 14:51:21;;;;;;;;;;;24.70;99.90;;;;;;9183734;19;20026;-72
2022/06/30 14:54:25;;;;;;;18.27;11.30;;;24.50;99.90;;;;;;9181463;19;19922;-71
2022/06/30 14:57:29;;;;;;;12.98;11.32;;;24.40;99.90;;;;;;9183530;19;20458;-71
2022/06/30 15:00:38;;;;;;;22.58;13.57;;;24.10;99.90;;;;;;9184537;19;20019;-70
2022/06/30 15:03:44;;;;;;;25.52;15.75;;;25.90;99.90;;;;;;9180182;19;20018;-70
2022/06/30 15:06:52;;;;;;;;;;;23.70;99.90;;;;;;9180543;19;20019;-68
2022/06/30 15:09:56;;;;;;;12.52;11.20;;;23.70;99.90;;;;;;9179141;19;19919;-71
2022/06/30 15:13:00;;;;;;;13.77;10.25;;;23.60;99.90;;;;;;9185026;19;20455;-70
2022/06/30 15:16:04;;;;;;;16.25;11.48;;;23.60;99.90;;;;;;9182839;19;20020;-69
2022/06/30 15:19:11;;;;;;;17.75;12.10;;;23.60;99.90;;;;;;9183140;19;20018;-70
2022/06/30 15:25:31;;;;;;;18.27;12.18;;;23.60;99.90;;;;;;9178939;19;20024;-70
2022/06/30 15:28:35;;;;;;;17.98;12.00;;;23.40;99.90;;;;;;9182475;19;20019;-71
2022/06/30 15:31:41;;;;;;;19.30;11.98;;;23.60;99.90;;;;;;9183218;19;20025;-71
2022/06/30 15:34:47;;;;;;;16.60;11.27;;;23.60;99.90;;;;;;9178881;19;20022;-71
2022/06/30 15:37:51;;;;;;;17.17;11.13;;;23.70;99.90;;;;;;9181569;19;20022;-70
2022/06/30 15:40:55;;;;;;;18.45;10.80;;;23.80;99.90;;;;;;9179947;19;20018;-70
2022/06/30 15:44:03;;;;;;;16.98;11.55;;;24.00;99.90;;;;;;9177527;19;20095;-71
2022/06/30 15:47:09;;;;;;;14.63;9.40;;;24.20;99.90;;;;;;9180855;19;20048;-72
2022/06/30 15:50:15;;;;;;;13.35;7.13;;;24.70;99.90;;;;;;9177767;19;20011;-70
2022/06/30 15:53:19;;;;;;;;;;;25.30;99.90;;;;;;9178141;19;20052;-79
2022/06/30 15:56:24;;;;;;;9.80;6.40;;;25.60;99.90;;;;;;9178883;19;19981;-71
2022/06/30 15:59:28;;;;;;;9.82;6.43;;;25.90;99.90;;;;;;9178676;19;20014;-70
2022/06/30 16:02:32;;;;;;;10.13;5.57;;;26.30;99.90;;;;;;9180577;19;20066;-70
2022/06/30 16:05:38;;;;;;;12.50;6.50;;;26.60;99.90;;;;;;9178051;19;20633;-70
2022/06/30 16:08:42;;;;;;;;;;;26.70;99.90;;;;;;9180407;19;20426;-70
2022/06/30 16:11:46;;;;;;;8.73;6.05;;;26.80;99.90;;;;;;9176871;19;19933;-70
2022/06/30 16:14:50;;;;;;;7.35;5.55;;;26.80;99.90;;;;;;9179549;19;20031;-69
2022/06/30 16:17:54;;;;;;;10.73;6.40;;;27.10;99.90;;;;;;9177048;19;20018;-71
2022/06/30 16:21:01;;;;;;;8.25;6.30;;;27.20;99.90;;;;;;9180249;19;20026;-70
2022/06/30 16:24:05;;;;;;;11.65;6.30;;;27.30;99.90;;;;;;9177463;19;20440;-72
2022/06/30 16:27:09;;;;;;;7.75;6.00;;;27.50;99.90;;;;;;9177686;19;20042;-69
2022/06/30 16:30:17;;;;;;;8.05;6.25;;;27.70;99.90;;;;;;9177918;19;20017;-73
2022/06/30 16:33:21;;;;;;;8.80;6.88;;;27.70;99.90;;;;;;9179297;19;20044;-79